createdAt,value
2018-08-23T00:00:43.476Z,16.40
2018-08-23T00:01:45.652Z,20.68
2018-08-23T00:02:47.829Z,20.08
2018-08-23T00:03:50.043Z,19.75
2018-08-23T00:04:52.221Z,17.17
2018-08-23T00:05:55.601Z,19.45
2018-08-23T00:07:00.913Z,20.20
2018-08-23T00:08:08.930Z,18.85
2018-08-23T00:09:11.101Z,20.52
2018-08-23T00:10:13.282Z,17.17
2018-08-23T00:11:18.423Z,21.35
2018-08-23T00:12:25.189Z,19.00
2018-08-23T00:13:27.475Z,16.30
2018-08-23T00:14:29.645Z,18.45
2018-08-23T00:15:32.582Z,19.23
2018-08-23T00:16:40.513Z,21.57
2018-08-23T00:17:45.793Z,16.48
2018-08-23T00:18:47.981Z,20.82
2018-08-23T00:19:50.142Z,19.20
2018-08-23T00:20:52.514Z,19.17
2018-08-23T00:21:54.702Z,22.32
2018-08-23T00:22:57.018Z,22.42
2018-08-23T00:24:08.986Z,19.45
2018-08-23T00:25:11.145Z,19.45
2018-08-23T00:26:15.569Z,23.85
2018-08-23T00:27:22.348Z,19.57
2018-08-23T00:28:24.514Z,22.25
2018-08-23T00:29:28.057Z,17.45
2018-08-23T00:30:31.242Z,20.65
2018-08-23T00:31:40.216Z,18.98
2018-08-23T00:32:42.387Z,19.48
2018-08-23T00:33:44.610Z,21.90
2018-08-23T00:34:46.773Z,21.15
2018-08-23T00:35:48.960Z,18.95
2018-08-23T00:36:51.154Z,20.15
2018-08-23T00:37:53.351Z,20.97
2018-08-23T00:38:55.505Z,17.82
2018-08-23T00:40:02.281Z,18.80
2018-08-23T00:41:04.465Z,18.87
2018-08-23T00:42:08.398Z,20.43
2018-08-23T00:43:12.478Z,20.05
2018-08-23T00:44:14.703Z,21.12
2018-08-23T00:45:18.253Z,19.50
2018-08-23T00:46:20.585Z,20.60
2018-08-23T00:47:24.090Z,18.55
2018-08-23T00:48:26.264Z,21.73
2018-08-23T00:49:31.077Z,21.65
2018-08-23T00:50:49.716Z,21.10
2018-08-23T00:51:51.939Z,18.07
2018-08-23T00:52:54.105Z,20.30
2018-08-23T00:54:01.889Z,21.48
2018-08-23T00:55:15.537Z,19.52
2018-08-23T00:56:20.847Z,20.80
2018-08-23T00:57:29.733Z,18.80
2018-08-23T00:58:31.957Z,18.87
2018-08-23T00:59:34.130Z,18.65
2018-08-23T01:00:36.337Z,19.40
2018-08-23T01:01:38.550Z,19.67
2018-08-23T01:02:40.778Z,19.50
2018-08-23T01:03:43.573Z,18.00
2018-08-23T01:04:46.538Z,22.67
2018-08-23T01:05:48.725Z,20.37
2018-08-23T01:06:50.914Z,20.52
2018-08-23T01:07:53.173Z,18.77
2018-08-23T01:08:55.361Z,22.25
2018-08-23T01:09:57.529Z,17.12
2018-08-23T01:10:59.705Z,19.07
2018-08-23T01:12:01.893Z,19.25
2018-08-23T01:13:04.077Z,20.30
2018-08-23T01:14:06.456Z,20.30
2018-08-23T01:15:08.645Z,21.07
2018-08-23T01:16:11.596Z,19.75
2018-08-23T01:17:15.033Z,22.05
2018-08-23T01:18:19.949Z,22.62
2018-08-23T01:19:27.880Z,20.85
2018-08-23T01:20:30.103Z,18.57
2018-08-23T01:21:37.325Z,23.73
2018-08-23T01:22:49.907Z,20.23
2018-08-23T01:23:52.073Z,23.62
2018-08-23T01:24:54.245Z,17.07
2018-08-23T01:25:56.406Z,17.48
2018-08-23T01:26:58.593Z,22.58
2018-08-23T01:28:00.769Z,21.00
2018-08-23T01:29:13.230Z,17.52
2018-08-23T01:30:15.409Z,18.73
2018-08-23T01:31:25.991Z,21.62
2018-08-23T01:32:32.037Z,18.90
2018-08-23T01:33:34.211Z,20.37
2018-08-23T01:34:36.409Z,17.02
2018-08-23T01:35:39.338Z,16.62
2018-08-23T01:36:41.590Z,18.90
2018-08-23T01:37:43.791Z,19.87
2018-08-23T01:38:45.957Z,20.70
2018-08-23T01:39:48.161Z,18.80
2018-08-23T01:40:52.893Z,16.73
2018-08-23T01:41:55.069Z,20.35
2018-08-23T01:42:57.270Z,18.77
2018-08-23T01:43:59.453Z,19.32
2018-08-23T01:45:02.326Z,20.32
2018-08-23T01:46:04.533Z,21.20
2018-08-23T01:47:06.746Z,23.52
2018-08-23T01:48:09.915Z,20.97
2018-08-23T01:49:12.089Z,22.30
2018-08-23T01:50:14.600Z,22.42
2018-08-23T01:51:16.783Z,23.12
2018-08-23T01:52:18.984Z,21.75
2018-08-23T01:53:25.750Z,23.00
2018-08-23T01:54:27.923Z,24.40
2018-08-23T01:55:30.144Z,21.55
2018-08-23T01:56:32.333Z,21.27
2018-08-23T01:57:34.541Z,27.80
2018-08-23T01:58:36.718Z,21.75
2018-08-23T01:59:38.885Z,19.37
2018-08-23T02:00:41.061Z,20.57
2018-08-23T02:01:43.249Z,23.92
2018-08-23T02:02:45.510Z,18.23
2018-08-23T02:03:47.702Z,21.35
2018-08-23T02:04:49.893Z,21.48
2018-08-23T02:05:52.065Z,20.37
2018-08-23T02:06:54.304Z,24.63
2018-08-23T02:07:56.517Z,21.90
2018-08-23T02:08:58.686Z,20.92
2018-08-23T02:10:00.883Z,23.32
2018-08-23T02:11:03.250Z,23.80
2018-08-23T02:12:05.490Z,23.57
2018-08-23T02:13:09.725Z,23.05
2018-08-23T02:14:11.926Z,20.68
2018-08-23T02:15:14.134Z,21.30
2018-08-23T02:16:16.315Z,19.70
2018-08-23T02:17:18.502Z,20.62
2018-08-23T02:18:20.697Z,21.40
2018-08-23T02:19:22.884Z,22.75
2018-08-23T02:20:31.878Z,18.65
2018-08-23T02:21:34.050Z,17.30
2018-08-23T02:22:36.209Z,18.48
2018-08-23T02:23:46.709Z,21.20
2018-08-23T02:24:48.919Z,20.80
2018-08-23T02:25:51.077Z,19.92
2018-08-23T02:26:53.271Z,20.10
2018-08-23T02:28:01.702Z,19.55
2018-08-23T02:29:04.121Z,17.65
2018-08-23T02:30:06.358Z,23.32
2018-08-23T02:31:08.560Z,18.70
2018-08-23T02:32:10.739Z,19.02
2018-08-23T02:33:13.624Z,21.12
2018-08-23T02:34:15.858Z,16.67
2018-08-23T02:35:18.036Z,19.73
2018-08-23T02:36:22.065Z,21.52
2018-08-23T02:37:24.257Z,18.52
2018-08-23T02:38:27.897Z,23.87
2018-08-23T02:39:30.082Z,18.80
2018-08-23T02:40:34.293Z,21.42
2018-08-23T02:41:36.521Z,23.92
2018-08-23T02:42:38.746Z,21.77
2018-08-23T02:43:40.957Z,22.48
2018-08-23T02:44:44.297Z,21.68
2018-08-23T02:45:50.462Z,21.23
2018-08-23T02:46:52.638Z,21.57
2018-08-23T02:47:54.833Z,21.90
2018-08-23T02:48:57.036Z,21.70
2018-08-23T02:49:59.213Z,20.80
2018-08-23T02:51:01.415Z,22.70
2018-08-23T02:52:04.101Z,25.30
2018-08-23T02:53:23.523Z,24.12
2018-08-23T02:54:25.701Z,24.02
2018-08-23T02:55:27.950Z,24.20
2018-08-23T02:56:30.142Z,21.10
2018-08-23T02:57:32.329Z,22.85
2018-08-23T02:58:47.263Z,22.58
2018-08-23T02:59:49.421Z,22.55
2018-08-23T03:00:51.582Z,18.98
2018-08-23T03:01:53.754Z,19.32
2018-08-23T03:02:56.009Z,25.55
2018-08-23T03:04:08.075Z,21.93
2018-08-23T03:05:12.111Z,21.50
2018-08-23T03:06:16.999Z,22.22
2018-08-23T03:07:21.146Z,21.52
2018-08-23T03:08:34.945Z,21.23
2018-08-23T03:09:38.313Z,24.25
2018-08-23T03:10:40.483Z,21.17
2018-08-23T03:11:42.718Z,21.52
2018-08-23T03:12:44.950Z,23.38
2018-08-23T03:13:47.113Z,22.22
2018-08-23T03:14:49.312Z,20.62
2018-08-23T03:15:51.524Z,20.37
2018-08-23T03:17:13.489Z,22.55
2018-08-23T03:18:15.665Z,24.23
2018-08-23T03:19:17.877Z,21.00
2018-08-23T03:20:20.062Z,22.52
2018-08-23T03:21:22.234Z,22.45
2018-08-23T03:22:24.574Z,23.57
2018-08-23T03:23:26.746Z,20.97
2018-08-23T03:24:28.952Z,20.52
2018-08-23T03:25:31.121Z,24.52
2018-08-23T03:26:33.310Z,22.85
2018-08-23T03:27:35.509Z,20.68
2018-08-23T03:28:37.690Z,23.70
2018-08-23T03:29:39.874Z,21.20
2018-08-23T03:30:42.137Z,18.60
2018-08-23T03:31:44.309Z,23.92
2018-08-23T03:32:46.509Z,24.60
2018-08-23T03:33:48.673Z,21.37
2018-08-23T03:34:50.862Z,23.18
2018-08-23T03:35:53.036Z,21.90
2018-08-23T03:36:55.248Z,19.42
2018-08-23T03:37:57.404Z,18.37
2018-08-23T03:38:59.602Z,23.27
2018-08-23T03:40:01.820Z,22.58
2018-08-23T03:41:04.105Z,23.02
2018-08-23T03:42:06.274Z,24.40
2018-08-23T03:43:08.465Z,21.85
2018-08-23T03:44:22.257Z,24.70
2018-08-23T03:45:27.105Z,28.55
2018-08-23T03:46:29.639Z,25.08
2018-08-23T03:47:38.131Z,23.10
2018-08-23T03:48:40.325Z,26.37
2018-08-23T03:49:43.748Z,25.37
2018-08-23T03:50:51.214Z,22.62
2018-08-23T03:51:54.569Z,22.30
2018-08-23T03:52:56.732Z,22.73
2018-08-23T03:53:58.931Z,25.95
2018-08-23T03:55:01.477Z,21.65
2018-08-23T03:56:08.538Z,18.75
2018-08-23T03:57:13.118Z,22.62
2018-08-23T03:58:15.360Z,19.95
2018-08-23T03:59:17.557Z,23.52
2018-08-23T04:00:25.909Z,24.23
2018-08-23T04:01:28.117Z,21.25
2018-08-23T04:02:30.311Z,23.05
2018-08-23T04:03:32.555Z,22.48
2018-08-23T04:04:34.750Z,19.55
2018-08-23T04:05:36.919Z,22.55
2018-08-23T04:06:39.107Z,22.02
2018-08-23T04:07:42.547Z,22.15
2018-08-23T04:08:45.894Z,22.07
2018-08-23T04:09:48.105Z,20.37
2018-08-23T04:10:50.274Z,23.98
2018-08-23T04:11:52.482Z,22.80
2018-08-23T04:12:54.666Z,21.42
2018-08-23T04:13:56.878Z,23.83
2018-08-23T04:15:14.107Z,24.25
2018-08-23T04:16:27.641Z,19.50
2018-08-23T04:17:29.858Z,21.37
2018-08-23T04:18:32.047Z,23.25
2018-08-23T04:19:53.230Z,20.95
2018-08-23T04:20:57.281Z,17.90
2018-08-23T04:21:59.747Z,24.82
2018-08-23T04:23:01.914Z,20.23
2018-08-23T04:24:04.234Z,21.50
2018-08-23T04:25:06.426Z,24.90
2018-08-23T04:26:08.637Z,22.45
2018-08-23T04:27:10.957Z,22.50
2018-08-23T04:28:13.153Z,21.57
2018-08-23T04:29:30.578Z,19.90
2018-08-23T04:30:32.744Z,22.52
2018-08-23T04:31:34.937Z,18.67
2018-08-23T04:32:48.784Z,22.95
2018-08-23T04:33:50.967Z,21.05
2018-08-23T04:34:53.571Z,23.87
2018-08-23T04:35:55.796Z,29.00
2018-08-23T04:36:57.977Z,19.90
2018-08-23T04:38:00.134Z,25.52
2018-08-23T04:39:06.112Z,25.05
2018-08-23T04:40:09.359Z,25.30
2018-08-23T04:41:12.452Z,26.68
2018-08-23T04:42:14.641Z,27.50
2018-08-23T04:43:16.867Z,27.40
2018-08-23T04:44:18.974Z,24.40
2018-08-23T04:45:23.424Z,26.57
2018-08-23T04:46:25.602Z,24.92
2018-08-23T04:47:27.778Z,26.87
2018-08-23T04:48:29.944Z,24.72
2018-08-23T04:49:32.214Z,21.82
2018-08-23T04:50:34.829Z,24.20
2018-08-23T04:51:37.315Z,25.10
2018-08-23T04:52:39.509Z,22.40
2018-08-23T04:53:41.708Z,22.45
2018-08-23T04:54:43.903Z,20.27
2018-08-23T04:55:46.072Z,25.80
2018-08-23T04:56:48.270Z,23.20
2018-08-23T04:57:50.450Z,22.07
2018-08-23T04:58:52.635Z,25.08
2018-08-23T04:59:54.793Z,26.17
2018-08-23T05:00:57.013Z,23.80
2018-08-23T05:01:59.183Z,26.93
2018-08-23T05:03:01.350Z,25.20
2018-08-23T05:04:03.681Z,21.15
2018-08-23T05:05:05.872Z,25.48
2018-08-23T05:06:08.070Z,24.32
2018-08-23T05:07:10.237Z,20.40
2018-08-23T05:08:12.417Z,20.55
2018-08-23T05:09:14.632Z,22.45
2018-08-23T05:10:16.801Z,20.57
2018-08-23T05:11:18.988Z,24.57
2018-08-23T05:12:21.253Z,25.85
2018-08-23T05:13:23.421Z,22.27
2018-08-23T05:14:25.602Z,23.80
2018-08-23T05:15:27.778Z,20.08
2018-08-23T05:16:29.986Z,23.90
2018-08-23T05:17:32.158Z,22.05
2018-08-23T05:18:34.339Z,23.30
2018-08-23T05:19:36.546Z,23.87
2018-08-23T05:20:38.718Z,21.27
2018-08-23T05:21:40.987Z,24.23
2018-08-23T05:22:50.198Z,24.57
2018-08-23T05:23:55.050Z,22.82
2018-08-23T05:25:01.820Z,21.35
2018-08-23T05:26:07.166Z,26.35
2018-08-23T05:27:09.366Z,22.77
2018-08-23T05:28:16.909Z,22.25
2018-08-23T05:29:19.064Z,21.40
2018-08-23T05:30:21.224Z,22.00
2018-08-23T05:31:23.728Z,23.83
2018-08-23T05:32:25.908Z,19.40
2018-08-23T05:33:28.098Z,21.97
2018-08-23T05:34:30.254Z,24.72
2018-08-23T05:35:32.482Z,26.95
2018-08-23T05:36:34.697Z,26.52
2018-08-23T05:37:36.886Z,23.83
2018-08-23T05:38:39.050Z,22.93
2018-08-23T05:39:48.624Z,22.80
2018-08-23T05:40:54.133Z,25.57
2018-08-23T05:41:56.337Z,25.62
2018-08-23T05:42:58.493Z,24.47
2018-08-23T05:44:11.389Z,21.50
2018-08-23T05:45:13.545Z,26.80
2018-08-23T05:46:15.722Z,25.37
2018-08-23T05:47:17.920Z,24.30
2018-08-23T05:48:31.684Z,25.43
2018-08-23T05:49:33.845Z,27.50
2018-08-23T05:50:36.013Z,25.77
2018-08-23T05:51:39.793Z,23.92
2018-08-23T05:52:41.963Z,26.15
2018-08-23T05:53:48.081Z,22.07
2018-08-23T05:54:50.472Z,24.87
2018-08-23T05:55:53.842Z,22.87
2018-08-23T05:56:56.010Z,25.02
2018-08-23T05:58:28.684Z,25.88
2018-08-23T05:59:30.894Z,27.60
2018-08-23T06:00:33.085Z,27.75
2018-08-23T06:01:35.295Z,24.23
2018-08-23T06:02:37.532Z,24.47
2018-08-23T06:03:39.720Z,25.12
2018-08-23T06:04:42.697Z,22.77
2018-08-23T06:05:46.266Z,25.70
2018-08-23T06:06:48.452Z,28.52
2018-08-23T06:07:51.289Z,29.37
2018-08-23T06:08:56.215Z,28.47
2018-08-23T06:09:58.361Z,25.97
2018-08-23T06:11:06.112Z,23.60
2018-08-23T06:12:08.317Z,25.17
2018-08-23T06:13:10.481Z,23.10
2018-08-23T06:14:13.119Z,24.27
2018-08-23T06:15:15.341Z,24.57
2018-08-23T06:16:17.514Z,23.30
2018-08-23T06:17:19.713Z,24.80
2018-08-23T06:18:22.573Z,21.17
2018-08-23T06:19:25.609Z,27.00
2018-08-23T06:20:27.786Z,22.05
2018-08-23T06:21:29.949Z,20.57
2018-08-23T06:22:32.138Z,21.57
2018-08-23T06:23:57.617Z,23.92
2018-08-23T06:24:59.810Z,24.82
2018-08-23T06:26:01.989Z,23.20
2018-08-23T06:27:04.192Z,21.00
2018-08-23T06:28:13.692Z,26.25
2018-08-23T06:29:17.401Z,24.30
2018-08-23T06:30:19.584Z,27.62
2018-08-23T06:31:21.757Z,27.27
2018-08-23T06:32:23.951Z,23.45
2018-08-23T06:33:36.991Z,30.32
2018-08-23T06:34:42.618Z,24.45
2018-08-23T06:35:45.129Z,29.48
2018-08-23T06:36:47.213Z,28.55
2018-08-23T06:37:54.933Z,29.00
2018-08-23T06:39:00.135Z,30.17
2018-08-23T06:40:02.374Z,26.90
2018-08-23T06:41:06.853Z,26.02
2018-08-23T06:42:09.001Z,24.92
2018-08-23T06:43:11.160Z,27.45
2018-08-23T06:44:13.348Z,29.65
2018-08-23T06:45:15.557Z,22.55
2018-08-23T06:46:17.755Z,27.35
2018-08-23T06:47:21.105Z,26.10
2018-08-23T06:48:23.301Z,24.77
2018-08-23T06:49:25.468Z,24.47
2018-08-23T06:50:27.673Z,25.80
2018-08-23T06:51:29.879Z,25.12
2018-08-23T06:52:37.950Z,22.17
2018-08-23T06:53:45.392Z,23.00
2018-08-23T06:54:47.613Z,25.00
2018-08-23T06:55:49.787Z,25.62
2018-08-23T06:56:51.965Z,21.87
2018-08-23T06:58:02.057Z,24.40
2018-08-23T06:59:04.447Z,24.92
2018-08-23T07:00:06.530Z,24.30
2018-08-23T07:01:14.526Z,24.20
2018-08-23T07:02:16.714Z,21.97
2018-08-23T07:03:18.889Z,24.15
2018-08-23T07:04:21.065Z,23.95
2018-08-23T07:05:23.467Z,24.92
2018-08-23T07:06:25.599Z,23.62
2018-08-23T07:07:27.770Z,25.20
2018-08-23T07:08:29.934Z,27.80
2018-08-23T07:09:37.272Z,21.35
2018-08-23T07:10:39.466Z,27.65
2018-08-23T07:11:41.924Z,22.95
2018-08-23T07:12:44.014Z,27.58
2018-08-23T07:13:46.381Z,25.40
2018-08-23T07:14:49.712Z,29.95
2018-08-23T07:15:58.886Z,24.25
2018-08-23T07:17:16.049Z,26.75
2018-08-23T07:18:20.458Z,24.35
2018-08-23T07:19:30.972Z,28.55
2018-08-23T07:20:33.164Z,25.57
2018-08-23T07:21:35.330Z,23.27
2018-08-23T07:22:37.505Z,26.00
2018-08-23T07:23:39.693Z,27.52
2018-08-23T07:24:47.300Z,24.23
2018-08-23T07:25:49.672Z,21.27
2018-08-23T07:26:52.146Z,25.72
2018-08-23T07:27:54.365Z,21.25
2018-08-23T07:28:56.568Z,21.45
2018-08-23T07:30:00.700Z,23.80
2018-08-23T07:31:02.914Z,22.62
2018-08-23T07:32:06.391Z,28.73
2018-08-23T07:33:08.621Z,21.80
2018-08-23T07:34:11.353Z,23.50
2018-08-23T07:35:16.065Z,26.85
2018-08-23T07:36:25.729Z,23.18
2018-08-23T07:37:28.435Z,19.70
2018-08-23T07:38:30.600Z,26.45
2018-08-23T07:39:32.869Z,18.73
2018-08-23T07:40:35.069Z,23.60
2018-08-23T07:41:37.281Z,22.00
2018-08-23T07:42:40.649Z,18.12
2018-08-23T07:43:42.827Z,22.15
2018-08-23T07:44:44.998Z,23.42
2018-08-23T07:45:47.181Z,23.45
2018-08-23T07:46:49.357Z,22.75
2018-08-23T07:47:52.867Z,19.35
2018-08-23T07:48:55.071Z,20.77
2018-08-23T07:49:59.448Z,22.82
2018-08-23T07:51:12.047Z,21.60
2018-08-23T07:52:21.054Z,19.25
2018-08-23T07:53:23.352Z,20.02
2018-08-23T07:54:25.578Z,23.00
2018-08-23T07:55:27.779Z,20.82
2018-08-23T07:56:30.015Z,16.97
2018-08-23T07:57:33.399Z,19.55
2018-08-23T07:58:35.574Z,21.27
2018-08-23T07:59:37.757Z,19.12
2018-08-23T08:00:41.178Z,18.92
2018-08-23T08:01:43.364Z,22.87
2018-08-23T08:02:45.572Z,23.57
2018-08-23T08:03:47.753Z,17.10
2018-08-23T08:04:49.940Z,19.70
2018-08-23T08:05:52.120Z,19.32
2018-08-23T08:06:54.297Z,18.30
2018-08-23T08:07:56.502Z,18.65
2018-08-23T08:09:00.010Z,20.80
2018-08-23T08:10:02.352Z,22.42
2018-08-23T08:11:04.618Z,17.65
2018-08-23T08:12:11.512Z,22.10
2018-08-23T08:13:13.677Z,20.88
2018-08-23T08:14:21.528Z,21.17
2018-08-23T08:15:23.841Z,23.73
2018-08-23T08:16:31.826Z,22.30
2018-08-23T08:17:34.210Z,19.95
2018-08-23T08:18:37.255Z,23.57
2018-08-23T08:19:40.747Z,20.80
2018-08-23T08:20:47.681Z,23.80
2018-08-23T08:21:49.873Z,22.02
2018-08-23T08:22:52.038Z,21.97
2018-08-23T08:23:56.602Z,16.10
2018-08-23T08:25:08.117Z,16.52
2018-08-23T08:26:10.305Z,20.48
2018-08-23T08:27:12.617Z,20.00
2018-08-23T08:28:15.942Z,20.90
2018-08-23T08:29:38.529Z,17.50
2018-08-23T08:30:43.153Z,25.25
2018-08-23T08:31:45.356Z,23.42
2018-08-23T08:32:47.573Z,19.37
2018-08-23T08:33:49.749Z,18.25
2018-08-23T08:34:52.602Z,18.27
2018-08-23T08:35:59.473Z,17.20
2018-08-23T08:37:01.646Z,21.50
2018-08-23T08:38:03.900Z,20.70
2018-08-23T08:39:08.174Z,20.85
2018-08-23T08:40:12.653Z,18.12
2018-08-23T08:41:14.867Z,18.85
2018-08-23T08:42:18.853Z,18.98
2018-08-23T08:43:21.517Z,20.27
2018-08-23T08:44:23.718Z,22.37
2018-08-23T08:45:26.191Z,20.08
2018-08-23T08:46:28.386Z,20.85
2018-08-23T08:47:30.986Z,21.73
2018-08-23T08:48:34.156Z,16.20
2018-08-23T08:49:36.349Z,20.60
2018-08-23T08:50:44.437Z,22.35
2018-08-23T08:51:46.626Z,24.45
2018-08-23T08:52:48.814Z,22.85
2018-08-23T08:53:51.613Z,25.77
2018-08-23T08:54:53.805Z,28.42
2018-08-23T08:55:55.992Z,23.95
2018-08-23T08:56:58.308Z,21.07
2018-08-23T08:58:00.426Z,22.98
2018-08-23T08:59:02.670Z,25.85
2018-08-23T09:00:04.898Z,20.95
2018-08-23T09:01:07.087Z,23.32
2018-08-23T09:02:09.274Z,21.02
2018-08-23T09:03:11.532Z,23.98
2018-08-23T09:04:19.429Z,23.80
2018-08-23T09:05:21.605Z,19.40
2018-08-23T09:06:33.830Z,18.90
2018-08-23T09:07:37.061Z,21.52
2018-08-23T09:08:39.253Z,22.40
2018-08-23T09:09:42.123Z,21.45
2018-08-23T09:10:44.282Z,21.25
2018-08-23T09:11:46.470Z,18.92
2018-08-23T09:12:48.685Z,19.57
2018-08-23T09:13:50.929Z,22.30
2018-08-23T09:14:53.093Z,16.60
2018-08-23T09:15:55.302Z,20.92
2018-08-23T09:16:57.545Z,23.07
2018-08-23T09:17:59.725Z,22.55
2018-08-23T09:19:03.418Z,19.17
2018-08-23T09:20:09.707Z,21.62
2018-08-23T09:21:11.894Z,19.80
2018-08-23T09:22:18.023Z,18.55
2018-08-23T09:23:20.202Z,17.57
2018-08-23T09:24:26.687Z,18.95
2018-08-23T09:25:34.710Z,22.42
2018-08-23T09:26:36.909Z,23.52
2018-08-23T09:27:39.117Z,18.45
2018-08-23T09:28:41.309Z,19.17
2018-08-23T09:29:43.510Z,21.95
2018-08-23T09:30:45.686Z,22.32
2018-08-23T09:31:47.864Z,22.07
2018-08-23T09:32:50.081Z,20.32
2018-08-23T09:33:52.292Z,21.50
2018-08-23T09:34:58.059Z,20.68
2018-08-23T09:36:00.258Z,21.10
2018-08-23T09:37:02.508Z,20.85
2018-08-23T09:38:09.109Z,23.27
2018-08-23T09:39:11.290Z,22.00
2018-08-23T09:40:13.493Z,20.00
2018-08-23T09:41:15.678Z,19.92
2018-08-23T09:42:17.874Z,16.77
2018-08-23T09:43:20.057Z,19.57
2018-08-23T09:44:22.221Z,18.52
2018-08-23T09:45:24.426Z,20.40
2018-08-23T09:46:26.614Z,18.67
2018-08-23T09:47:29.617Z,19.62
2018-08-23T09:48:31.787Z,18.45
2018-08-23T09:49:34.497Z,18.60
2018-08-23T09:50:36.749Z,21.48
2018-08-23T09:51:38.903Z,20.15
2018-08-23T09:52:44.026Z,15.93
2018-08-23T09:53:46.199Z,17.37
2018-08-23T09:54:48.379Z,19.52
2018-08-23T09:55:51.185Z,18.92
2018-08-23T09:56:53.349Z,19.17
2018-08-23T09:57:56.145Z,15.65
2018-08-23T09:58:58.419Z,17.20
2018-08-23T10:00:00.519Z,16.60
2018-08-23T10:01:08.420Z,20.40
2018-08-23T10:02:16.337Z,16.97
2018-08-23T10:05:25.725Z,19.02
2018-08-23T10:06:33.621Z,23.12
2018-08-23T10:07:41.365Z,17.25
2018-08-23T10:08:50.245Z,17.32
2018-08-23T10:09:58.137Z,17.07
2018-08-23T10:11:05.961Z,19.12
2018-08-23T10:12:13.876Z,16.07
2018-08-23T10:13:21.753Z,14.80
2018-08-23T10:14:29.689Z,18.90
2018-08-23T10:15:37.421Z,16.48
2018-08-23T10:16:45.293Z,14.85
2018-08-23T10:17:53.203Z,15.85
2018-08-23T10:18:58.297Z,14.15
2018-08-23T10:20:06.096Z,16.52
2018-08-23T10:21:08.319Z,15.98
2018-08-23T10:22:16.177Z,15.93
2018-08-23T10:23:21.937Z,17.48
2018-08-23T10:24:24.539Z,15.85
2018-08-23T10:25:42.530Z,17.52
2018-08-23T10:26:45.091Z,16.45
2018-08-23T10:27:47.293Z,15.48
2018-08-23T10:28:49.474Z,16.20
2018-08-23T10:29:51.664Z,18.75
2018-08-23T10:30:54.453Z,15.38
2018-08-23T10:31:56.642Z,18.48
2018-08-23T10:32:58.868Z,17.30
2018-08-23T10:34:01.070Z,17.25
2018-08-23T10:35:03.333Z,16.70
2018-08-23T10:36:05.603Z,19.17
2018-08-23T10:37:07.793Z,17.60
2018-08-23T10:38:10.058Z,17.80
2018-08-23T10:39:13.035Z,16.17
2018-08-23T10:40:15.230Z,17.48
2018-08-23T10:41:17.433Z,20.23
2018-08-23T10:42:19.595Z,15.45
2018-08-23T10:43:27.532Z,20.02
2018-08-23T10:44:29.730Z,15.78
2018-08-23T10:45:31.863Z,14.60
2018-08-23T10:46:39.713Z,18.02
2018-08-23T10:47:47.561Z,19.55
2018-08-23T10:48:49.798Z,15.70
2018-08-23T10:49:51.994Z,15.03
2018-08-23T10:50:54.191Z,15.55
2018-08-23T10:51:56.409Z,15.90
2018-08-23T10:52:58.581Z,15.90
2018-08-23T10:54:00.754Z,16.73
2018-08-23T10:55:02.983Z,16.80
2018-08-23T10:56:05.152Z,15.38
2018-08-23T10:57:11.945Z,17.85
2018-08-23T10:58:14.200Z,15.32
2018-08-23T10:59:16.353Z,16.52
2018-08-23T11:00:18.534Z,16.10
2018-08-23T11:01:20.694Z,14.98
2018-08-23T11:02:22.865Z,15.63
2018-08-23T11:03:25.041Z,16.85
2018-08-23T11:04:27.221Z,15.60
2018-08-23T11:05:29.433Z,16.48
2018-08-23T11:06:31.638Z,18.35
2018-08-23T11:07:39.590Z,17.45
2018-08-23T11:08:41.813Z,18.07
2018-08-23T11:09:49.667Z,15.80
2018-08-23T11:10:57.462Z,18.82
2018-08-23T11:11:59.658Z,17.70
2018-08-23T11:13:07.479Z,16.32
2018-08-23T11:14:15.329Z,14.23
2018-08-23T11:15:23.725Z,17.98
2018-08-23T11:16:31.694Z,14.75
2018-08-23T11:17:39.590Z,12.47
2018-08-23T11:18:47.601Z,14.25
2018-08-23T11:19:55.349Z,13.55
2018-08-23T11:20:57.533Z,16.10
2018-08-23T11:21:59.706Z,15.65
2018-08-23T11:23:01.893Z,13.30
2018-08-23T11:24:04.102Z,13.98
2018-08-23T11:25:06.290Z,17.75
2018-08-23T11:26:08.461Z,14.05
2018-08-23T11:27:10.636Z,16.93
2018-08-23T11:28:18.373Z,15.75
2018-08-23T11:29:21.597Z,14.23
2018-08-23T11:30:23.769Z,16.00
2018-08-23T11:31:28.341Z,14.95
2018-08-23T11:32:30.543Z,14.55
2018-08-23T11:33:32.788Z,14.20
2018-08-23T11:34:34.979Z,15.40
2018-08-23T11:35:37.469Z,13.18
2018-08-23T11:36:39.657Z,16.48
2018-08-23T11:37:41.833Z,15.28
2018-08-23T11:38:44.013Z,13.20
2018-08-23T11:39:46.184Z,17.30
2018-08-23T11:40:48.368Z,14.87
2018-08-23T11:41:50.581Z,14.20
2018-08-23T11:42:52.784Z,17.12
2018-08-23T11:43:55.013Z,17.02
2018-08-23T11:44:57.342Z,12.58
2018-08-23T11:46:05.266Z,15.65
2018-08-23T11:47:07.457Z,15.63
2018-08-23T11:48:09.655Z,11.80
2018-08-23T11:49:11.897Z,13.72
2018-08-23T11:50:14.085Z,16.52
2018-08-23T11:51:17.118Z,13.98
2018-08-23T11:52:19.293Z,14.83
2018-08-23T11:53:21.679Z,12.23
2018-08-23T11:54:23.721Z,14.53
2018-08-23T11:55:26.045Z,18.40
2018-08-23T11:56:28.229Z,12.33
2018-08-23T11:57:30.407Z,16.00
2018-08-23T11:58:32.731Z,12.75
2018-08-23T11:59:34.882Z,14.13
2018-08-23T12:00:37.085Z,13.35
2018-08-23T12:01:39.275Z,13.75
2018-08-23T12:02:42.287Z,14.25
2018-08-23T12:03:44.880Z,14.43
2018-08-23T12:04:47.159Z,14.63
2018-08-23T12:05:49.325Z,14.03
2018-08-23T12:06:55.473Z,12.93
2018-08-23T12:07:57.624Z,14.23
2018-08-23T12:08:59.783Z,13.43
2018-08-23T12:10:02.019Z,15.40
2018-08-23T12:11:04.210Z,11.10
2018-08-23T12:12:06.380Z,13.60
2018-08-23T12:13:08.570Z,13.30
2018-08-23T12:14:10.730Z,11.90
2018-08-23T12:15:12.979Z,12.10
2018-08-23T12:16:15.203Z,12.30
2018-08-23T12:17:17.334Z,11.10
2018-08-23T12:18:19.492Z,10.55
2018-08-23T12:19:21.670Z,11.93
2018-08-23T12:20:23.829Z,13.78
2018-08-23T12:21:26.017Z,9.73
2018-08-23T12:22:34.021Z,14.68
2018-08-23T12:23:36.182Z,14.55
2018-08-23T12:24:38.385Z,11.95
2018-08-23T12:25:40.575Z,16.90
2018-08-23T12:26:42.772Z,14.53
2018-08-23T12:27:55.520Z,13.70
2018-08-23T12:29:03.249Z,15.30
2018-08-23T12:30:06.459Z,15.50
2018-08-23T12:31:08.627Z,17.00
2018-08-23T12:32:10.826Z,17.02
2018-08-23T12:33:13.003Z,11.88
2018-08-23T12:34:25.418Z,16.25
2018-08-23T12:35:27.789Z,16.30
2018-08-23T12:36:35.778Z,14.70
2018-08-23T12:37:43.578Z,16.75
2018-08-23T12:38:51.385Z,19.10
2018-08-23T12:39:59.233Z,17.45
2018-08-23T12:41:07.240Z,18.55
2018-08-23T12:42:15.066Z,18.90
2018-08-23T12:43:19.251Z,17.50
2018-08-23T12:44:21.427Z,19.37
2018-08-23T12:45:23.578Z,18.00
2018-08-23T12:46:25.849Z,18.30
2018-08-23T12:47:28.050Z,17.65
2018-08-23T12:48:30.220Z,19.30
2018-08-23T12:49:32.498Z,21.12
2018-08-23T12:50:34.570Z,20.70
2018-08-23T12:51:37.473Z,19.73
2018-08-23T12:52:39.631Z,16.65
2018-08-23T12:53:41.781Z,19.77
2018-08-23T12:54:43.956Z,20.15
2018-08-23T12:55:46.130Z,19.32
2018-08-23T12:56:48.305Z,15.78
2018-08-23T12:57:50.453Z,17.32
2018-08-23T12:58:52.639Z,18.45
2018-08-23T12:59:54.807Z,17.12
2018-08-23T13:00:57.000Z,17.70
2018-08-23T13:01:59.287Z,16.67
2018-08-23T13:03:01.503Z,17.98
2018-08-23T13:04:03.811Z,14.60
2018-08-23T13:05:05.854Z,18.55
2018-08-23T13:06:08.050Z,15.88
2018-08-23T13:07:10.246Z,15.28
2018-08-23T13:08:12.459Z,17.20
2018-08-23T13:09:14.577Z,18.48
2018-08-23T13:10:16.765Z,16.75
2018-08-23T13:11:18.950Z,15.72
2018-08-23T13:12:21.113Z,19.67
2018-08-23T13:13:23.262Z,20.82
2018-08-23T13:14:25.415Z,16.20
2018-08-23T13:15:27.580Z,16.93
2018-08-23T13:16:29.801Z,19.90
2018-08-23T13:17:32.044Z,14.63
2018-08-23T13:18:34.169Z,17.02
2018-08-23T13:19:36.333Z,16.52
2018-08-23T13:20:38.489Z,17.20
2018-08-23T13:21:40.645Z,17.70
2018-08-23T13:22:42.805Z,20.02
2018-08-23T13:23:44.974Z,21.10
2018-08-23T13:24:52.837Z,18.02
2018-08-23T13:25:56.312Z,15.48
2018-08-23T13:26:58.494Z,18.25
2018-08-23T13:28:00.660Z,17.77
2018-08-23T13:29:02.834Z,16.77
2018-08-23T13:30:05.140Z,14.90
2018-08-23T13:31:07.322Z,16.67
2018-08-23T13:32:09.504Z,13.72
2018-08-23T13:33:11.721Z,19.37
2018-08-23T13:34:14.109Z,18.90
2018-08-23T13:35:16.304Z,16.75
2018-08-23T13:36:18.633Z,16.30
2018-08-23T13:37:20.680Z,17.87
2018-08-23T13:38:22.873Z,15.83
2018-08-23T13:39:24.994Z,16.57
2018-08-23T13:40:27.178Z,18.48
2018-08-23T13:41:29.346Z,18.82